createdAt,value
2017-06-02T00:00:05.422Z,50.51
2017-06-02T00:00:46.011Z,50.41
2017-06-02T00:01:26.593Z,50.7
2017-06-02T00:02:07.189Z,50.41
2017-06-02T00:02:47.760Z,50.41
2017-06-02T00:03:28.341Z,50.6
2017-06-02T00:04:08.936Z,50.99
2017-06-02T00:04:49.523Z,50.79
2017-06-02T00:05:30.106Z,50.87
2017-06-02T00:06:10.686Z,51.28
2017-06-02T00:06:51.279Z,51.46
2017-06-02T00:07:31.854Z,51.34
2017-06-02T00:08:12.441Z,51.37
2017-06-02T00:08:53.014Z,51.46
2017-06-02T00:09:33.594Z,51.25
2017-06-02T00:10:14.169Z,51.28
2017-06-02T00:10:54.748Z,51.34
2017-06-02T00:11:35.321Z,51.28
2017-06-02T00:12:15.917Z,51.46
2017-06-02T00:12:56.503Z,51.44
2017-06-02T00:13:37.126Z,51.37
2017-06-02T00:14:17.709Z,51.54
2017-06-02T00:14:58.306Z,51.54
2017-06-02T00:15:38.903Z,51.34
2017-06-02T00:16:19.506Z,51.25
2017-06-02T00:17:00.094Z,51.25
2017-06-02T00:17:40.680Z,51.28
2017-06-02T00:18:21.260Z,51.25
2017-06-02T00:19:01.854Z,50.96
2017-06-02T00:19:42.434Z,51.34
2017-06-02T00:20:23.019Z,51.25
2017-06-02T00:21:03.606Z,51.56
2017-06-02T00:21:44.182Z,51.75
2017-06-02T00:22:24.782Z,51.92
2017-06-02T00:23:05.369Z,51.92
2017-06-02T00:23:45.959Z,51.73
2017-06-02T00:24:26.573Z,51.92
2017-06-02T00:25:07.157Z,52.2
2017-06-02T00:25:47.728Z,52.01
2017-06-02T00:26:28.302Z,52.11
2017-06-02T00:27:08.890Z,51.82
2017-06-02T00:27:49.471Z,52.11
2017-06-02T00:28:30.077Z,52.3
2017-06-02T00:29:10.656Z,52.4
2017-06-02T00:29:51.251Z,52.2
2017-06-02T00:30:31.839Z,52.2
2017-06-02T00:31:12.430Z,52.01
2017-06-02T00:31:53.010Z,51.92
2017-06-02T00:32:33.590Z,52.2
2017-06-02T00:33:14.187Z,51.92
2017-06-02T00:33:54.774Z,52.2
2017-06-02T00:34:35.353Z,52.11
2017-06-02T00:35:15.932Z,52.11
2017-06-02T00:35:56.503Z,52.11
2017-06-02T00:36:37.088Z,51.92
2017-06-02T00:37:17.679Z,52.01
2017-06-02T00:37:58.257Z,52.2
2017-06-02T00:38:38.837Z,52.2
2017-06-02T00:39:19.428Z,52.4
2017-06-02T00:40:00.023Z,52.78
2017-06-02T00:40:40.608Z,52.78
2017-06-02T00:41:21.198Z,52.97
2017-06-02T00:42:01.772Z,52.4
2017-06-02T00:42:42.365Z,52.4
2017-06-02T00:43:22.950Z,52.59
2017-06-02T00:44:03.562Z,52.69
2017-06-02T00:44:44.150Z,52.97
2017-06-02T00:45:24.730Z,52.97
2017-06-02T00:46:05.310Z,53.16
2017-06-02T00:46:45.896Z,52.97
2017-06-02T00:47:26.475Z,52.87
2017-06-02T00:48:07.060Z,52.97
2017-06-02T00:48:47.640Z,53.16
2017-06-02T00:49:28.227Z,52.87
2017-06-02T00:50:08.806Z,53.07
2017-06-02T00:50:49.394Z,52.97
2017-06-02T00:51:29.972Z,52.87
2017-06-02T00:52:10.565Z,52.87
2017-06-02T00:52:51.151Z,52.69
2017-06-02T00:53:31.730Z,53.07
2017-06-02T00:54:12.310Z,53.07
2017-06-02T00:54:52.894Z,53.07
2017-06-02T00:55:33.471Z,53.36
2017-06-02T00:56:14.052Z,53.26
2017-06-02T00:56:54.629Z,53.74
2017-06-02T00:57:35.242Z,53.55
2017-06-02T00:58:15.845Z,53.26
2017-06-02T00:58:56.448Z,53.36
2017-06-02T00:59:37.033Z,53.36
2017-06-02T01:00:17.620Z,53.36
2017-06-02T01:00:58.197Z,53.26
2017-06-02T01:01:38.784Z,53.74
2017-06-02T01:02:19.366Z,53.52
2017-06-02T01:02:59.967Z,53.64
2017-06-02T01:03:40.557Z,53.52
2017-06-02T01:04:21.139Z,53.55
2017-06-02T01:05:01.715Z,53.62
2017-06-02T01:05:42.309Z,53.42
2017-06-02T01:06:22.901Z,53.33
2017-06-02T01:07:03.488Z,53.33
2017-06-02T01:07:44.065Z,53.04
2017-06-02T01:08:24.642Z,53.33
2017-06-02T01:09:05.236Z,53.33
2017-06-02T01:09:45.829Z,53.81
2017-06-02T01:10:26.476Z,53.42
2017-06-02T01:11:07.047Z,53.71
2017-06-02T01:11:47.637Z,53.71
2017-06-02T01:12:28.238Z,53.81
2017-06-02T01:13:08.831Z,53.71
2017-06-02T01:13:49.424Z,54.1
2017-06-02T01:14:30.020Z,54
2017-06-02T01:15:10.617Z,54
2017-06-02T01:15:51.194Z,54.1
2017-06-02T01:16:31.773Z,53.91
2017-06-02T01:17:12.364Z,54
2017-06-02T01:17:52.944Z,53.91
2017-06-02T01:18:33.525Z,53.91
2017-06-02T01:19:14.116Z,54.19
2017-06-02T01:19:54.689Z,54.28
2017-06-02T01:20:35.282Z,54
2017-06-02T01:21:15.868Z,54.19
2017-06-02T01:21:56.444Z,54.19
2017-06-02T01:22:37.026Z,54.1
2017-06-02T01:23:17.603Z,54.1
2017-06-02T01:23:58.206Z,54.19
2017-06-02T01:24:38.777Z,54.1
2017-06-02T01:25:19.355Z,54.28
2017-06-02T01:25:59.936Z,54.19
2017-06-02T01:26:40.522Z,54.19
2017-06-02T01:27:21.094Z,54.38
2017-06-02T01:28:01.688Z,54.28
2017-06-02T01:28:42.253Z,54.19
2017-06-02T01:29:22.853Z,54.19
2017-06-02T01:30:03.454Z,54.28
2017-06-02T01:30:44.030Z,54.1
2017-06-02T01:31:24.620Z,54.19
2017-06-02T01:32:05.207Z,54.19
2017-06-02T01:32:45.805Z,54
2017-06-02T01:33:26.383Z,54.67
2017-06-02T01:34:06.963Z,54.67
2017-06-02T01:34:47.528Z,54.38
2017-06-02T01:35:28.115Z,54.67
2017-06-02T01:36:08.745Z,54.48
2017-06-02T01:36:49.314Z,54.48
2017-06-02T01:37:29.902Z,54.86
2017-06-02T01:38:10.473Z,54.86
2017-06-02T01:38:51.061Z,54.77
2017-06-02T01:39:31.636Z,54.77
2017-06-02T01:40:12.396Z,54.57
2017-06-02T01:40:52.986Z,54.86
2017-06-02T01:41:33.574Z,55.05
2017-06-02T01:42:14.156Z,55.15
2017-06-02T01:42:54.738Z,55.15
2017-06-02T01:43:35.320Z,54.96
2017-06-02T01:44:15.906Z,55.05
2017-06-02T01:44:56.501Z,54.55
2017-06-02T01:45:37.076Z,54.64
2017-06-02T01:46:17.668Z,54.67
2017-06-02T01:46:58.257Z,55.15
2017-06-02T01:47:38.843Z,55.05
2017-06-02T01:48:19.427Z,55.05
2017-06-02T01:49:00.032Z,55.15
2017-06-02T01:49:40.608Z,55.34
2017-06-02T01:50:21.185Z,55.15
2017-06-02T01:51:01.772Z,55.05
2017-06-02T01:51:42.353Z,55.05
2017-06-02T01:52:22.937Z,55.24
2017-06-02T01:53:03.525Z,55.24
2017-06-02T01:53:44.118Z,55.15
2017-06-02T01:54:24.732Z,55.15
2017-06-02T01:55:05.326Z,56.39
2017-06-02T01:55:45.902Z,57.54
2017-06-02T01:56:26.482Z,58.69
2017-06-02T01:57:07.054Z,59.08
2017-06-02T01:57:47.762Z,58.4
2017-06-02T01:58:28.345Z,58.31
2017-06-02T01:59:08.940Z,58.05
2017-06-02T01:59:49.526Z,58.44
2017-06-02T02:00:30.100Z,58.44
2017-06-02T02:01:10.696Z,55.94
2017-06-02T02:01:51.279Z,54.5
2017-06-02T02:02:31.871Z,53.83
2017-06-02T02:03:12.482Z,53.93
2017-06-02T02:03:53.064Z,53.45
2017-06-02T02:04:33.658Z,53.45
2017-06-02T02:05:14.236Z,53.16
2017-06-02T02:05:54.830Z,53.55
2017-06-02T02:06:35.424Z,53.74
2017-06-02T02:07:16.002Z,53.74
2017-06-02T02:07:56.583Z,53.14
2017-06-02T02:08:37.167Z,53.62
2017-06-02T02:09:17.751Z,54
2017-06-02T02:09:58.337Z,54.1
2017-06-02T02:10:38.927Z,54.19
2017-06-02T02:11:19.513Z,54.28
2017-06-02T02:12:00.097Z,54.77
2017-06-02T02:12:40.706Z,54.57
2017-06-02T02:13:21.288Z,54.38
2017-06-02T02:14:01.881Z,54.48
2017-06-02T02:14:42.463Z,54.48
2017-06-02T02:15:23.039Z,54.77
2017-06-02T02:16:03.635Z,54.77
2017-06-02T02:16:44.207Z,54.48
2017-06-02T02:17:24.809Z,55.05
2017-06-02T02:18:05.407Z,55.05
2017-06-02T02:18:45.973Z,55.31
2017-06-02T02:19:26.554Z,55.12
2017-06-02T02:20:07.160Z,55.12
2017-06-02T02:20:47.774Z,55.12
2017-06-02T02:21:28.390Z,55.51
2017-06-02T02:22:08.992Z,55.6
2017-06-02T02:22:49.580Z,55.6
2017-06-02T02:23:30.155Z,55.69
2017-06-02T02:24:10.750Z,55.69
2017-06-02T02:24:51.349Z,55.88
2017-06-02T02:25:31.940Z,56.08
2017-06-02T02:26:12.534Z,56.17
2017-06-02T02:26:53.114Z,55.98
2017-06-02T02:27:33.690Z,56.17
2017-06-02T02:28:14.284Z,55.98
2017-06-02T02:28:54.869Z,56.17
2017-06-02T02:29:35.456Z,56.56
2017-06-02T02:30:16.042Z,56.27
2017-06-02T02:30:56.623Z,56.37
2017-06-02T02:31:37.206Z,56.46
2017-06-02T02:32:17.792Z,56.17
2017-06-02T02:32:58.377Z,56.37
2017-06-02T02:33:38.961Z,55.98
2017-06-02T02:34:19.549Z,56.65
2017-06-02T02:35:00.133Z,56.84
2017-06-02T02:35:40.705Z,56.94
2017-06-02T02:36:21.302Z,56.75
2017-06-02T02:37:01.887Z,56.75
2017-06-02T02:37:42.477Z,56.94
2017-06-02T02:38:23.057Z,57.13
2017-06-02T02:39:03.647Z,56.94
2017-06-02T02:39:44.234Z,57.04
2017-06-02T02:40:24.820Z,56.94
2017-06-02T02:41:05.400Z,57.04
2017-06-02T02:41:45.986Z,57.04
2017-06-02T02:42:26.580Z,56.94
2017-06-02T02:43:07.174Z,57.13
2017-06-02T02:43:47.757Z,57.04
2017-06-02T02:44:28.355Z,57.13
2017-06-02T02:45:09.004Z,57.23
2017-06-02T02:45:49.591Z,57.23
2017-06-02T02:46:30.179Z,57.13
2017-06-02T02:47:10.764Z,57.32
2017-06-02T02:47:51.341Z,57.23
2017-06-02T02:48:31.923Z,57.13
2017-06-02T02:49:12.504Z,57.61
2017-06-02T02:49:53.077Z,57.51
2017-06-02T02:50:33.654Z,57.7
2017-06-02T02:51:14.240Z,57.8
2017-06-02T02:51:54.810Z,57.42
2017-06-02T02:52:35.387Z,57.61
2017-06-02T02:53:15.959Z,57.51
2017-06-02T02:53:56.528Z,57.42
2017-06-02T02:54:37.109Z,57.8
2017-06-02T02:55:17.695Z,57.8
2017-06-02T02:55:58.275Z,57.23
2017-06-02T02:56:38.874Z,57.7
2017-06-02T02:57:19.457Z,57.32
2017-06-02T02:58:00.032Z,57.32
2017-06-02T02:58:40.615Z,57.23
2017-06-02T02:59:21.191Z,57.32
2017-06-02T03:00:01.770Z,57.77
2017-06-02T03:00:42.369Z,57.9
2017-06-02T03:01:22.956Z,57.99
2017-06-02T03:02:03.533Z,57.8
2017-06-02T03:02:44.124Z,58.09
2017-06-02T03:03:24.759Z,57.77
2017-06-02T03:04:05.333Z,57.77
2017-06-02T03:04:45.910Z,57.77
2017-06-02T03:05:26.516Z,57.7
2017-06-02T03:06:07.098Z,57.68
2017-06-02T03:06:47.676Z,57.97
2017-06-02T03:07:28.278Z,57.87
2017-06-02T03:08:08.874Z,58.18
2017-06-02T03:08:49.464Z,57.87
2017-06-02T03:09:30.065Z,57.97
2017-06-02T03:10:10.650Z,58.06
2017-06-02T03:10:51.229Z,58.44
2017-06-02T03:11:31.824Z,58.15
2017-06-02T03:12:12.409Z,58.34
2017-06-02T03:12:52.988Z,58.44
2017-06-02T03:13:33.596Z,58.37
2017-06-02T03:14:14.187Z,58.54
2017-06-02T03:14:54.773Z,58.37
2017-06-02T03:15:35.369Z,58.47
2017-06-02T03:16:15.954Z,58.44
2017-06-02T03:16:56.532Z,58.15
2017-06-02T03:17:37.115Z,58.15
2017-06-02T03:18:17.714Z,57.97
2017-06-02T03:18:58.296Z,58.25
2017-06-02T03:19:38.893Z,58.54
2017-06-02T03:20:19.489Z,58.44
2017-06-02T03:21:00.092Z,58.44
2017-06-02T03:21:40.675Z,58.34
2017-06-02T03:22:21.269Z,58.34
2017-06-02T03:23:01.854Z,58.44
2017-06-02T03:23:42.442Z,58.25
2017-06-02T03:24:23.028Z,58.73
2017-06-02T03:25:03.604Z,58.83
2017-06-02T03:25:44.184Z,58.92
2017-06-02T03:26:24.782Z,58.63
2017-06-02T03:27:05.363Z,58.73
2017-06-02T03:27:45.943Z,58.44
2017-06-02T03:28:26.522Z,58.73
2017-06-02T03:29:07.101Z,59.01
2017-06-02T03:29:47.687Z,58.83
2017-06-02T03:30:28.296Z,58.73
2017-06-02T03:31:08.876Z,58.92
2017-06-02T03:31:49.467Z,58.63
2017-06-02T03:32:30.034Z,58.83
2017-06-02T03:33:10.621Z,58.92
2017-06-02T03:33:51.207Z,59.4
2017-06-02T03:34:31.790Z,59.3
2017-06-02T03:35:12.359Z,59.14
2017-06-02T03:35:52.949Z,59.2
2017-06-02T03:36:33.549Z,59.33
2017-06-02T03:37:14.130Z,59.01
2017-06-02T03:37:54.720Z,58.83
2017-06-02T03:38:35.307Z,58.54
2017-06-02T03:39:15.887Z,59.05
2017-06-02T03:39:56.476Z,59.4
2017-06-02T03:40:37.055Z,59.59
2017-06-02T03:41:17.638Z,59.43
2017-06-02T03:41:58.231Z,59.3
2017-06-02T03:42:38.849Z,59.59
2017-06-02T03:43:19.445Z,59.49
2017-06-02T03:44:00.027Z,59.52
2017-06-02T03:44:40.609Z,59.3
2017-06-02T03:45:21.195Z,59.49
2017-06-02T03:46:01.774Z,59.72
2017-06-02T03:46:42.355Z,59.97
2017-06-02T03:47:22.940Z,59.43
2017-06-02T03:48:03.511Z,59.81
2017-06-02T03:48:44.097Z,59.62
2017-06-02T03:49:24.679Z,59.62
2017-06-02T03:50:05.255Z,59.62
2017-06-02T03:50:45.859Z,59.52
2017-06-02T03:51:26.463Z,59.23
2017-06-02T03:52:07.037Z,59.23
2017-06-02T03:52:47.619Z,59.14
2017-06-02T03:53:28.209Z,59.33
2017-06-02T03:54:08.810Z,59.33
2017-06-02T03:54:49.394Z,59.33
2017-06-02T03:55:29.975Z,59.14
2017-06-02T03:56:10.563Z,59.2
2017-06-02T03:56:51.152Z,59.23
2017-06-02T03:57:31.737Z,59.52
2017-06-02T03:58:12.325Z,59.14
2017-06-02T03:58:52.912Z,58.86
2017-06-02T03:59:33.485Z,59.05
2017-06-02T04:00:14.078Z,58.76
2017-06-02T04:00:54.697Z,58.76
2017-06-02T04:01:35.296Z,58.95
2017-06-02T04:02:15.893Z,58.95
2017-06-02T04:02:56.470Z,59.05
2017-06-02T04:03:37.059Z,59.05
2017-06-02T04:04:17.663Z,58.76
2017-06-02T04:04:58.258Z,58.95
2017-06-02T04:05:38.872Z,58.86
2017-06-02T04:06:19.444Z,58.95
2017-06-02T04:07:00.048Z,58.95
2017-06-02T04:07:40.648Z,58.86
2017-06-02T04:08:21.247Z,58.56
2017-06-02T04:09:01.842Z,58.09
2017-06-02T04:09:42.420Z,58.28
2017-06-02T04:10:23.008Z,58.09
2017-06-02T04:11:03.600Z,58.47
2017-06-02T04:11:44.175Z,59.05
2017-06-02T04:12:24.778Z,58.56
2017-06-02T04:13:05.378Z,58.86
2017-06-02T04:13:45.961Z,58.76
2017-06-02T04:14:26.535Z,58.86
2017-06-02T04:15:07.182Z,58.66
2017-06-02T04:15:47.766Z,58.76
2017-06-02T04:16:28.346Z,58.66
2017-06-02T04:17:08.935Z,59.05
2017-06-02T04:17:49.542Z,58.86
2017-06-02T04:18:30.127Z,59.36
2017-06-02T04:19:10.709Z,59.05
2017-06-02T04:19:51.294Z,58.76
2017-06-02T04:20:31.907Z,58.69
2017-06-02T04:21:12.499Z,59.27
2017-06-02T04:21:53.092Z,59.55
2017-06-02T04:22:33.683Z,58.98
2017-06-02T04:23:14.283Z,59.27
2017-06-02T04:23:54.869Z,59.17
2017-06-02T04:24:35.464Z,59.45
2017-06-02T04:25:16.049Z,58.88
2017-06-02T04:25:56.626Z,58.69
2017-06-02T04:26:37.198Z,58.88
2017-06-02T04:27:17.796Z,58.79
2017-06-02T04:27:58.382Z,58.69
2017-06-02T04:28:38.979Z,58.88
2017-06-02T04:29:19.589Z,58.69
2017-06-02T04:30:00.225Z,58.4
2017-06-02T04:30:40.825Z,58.4
2017-06-02T04:31:21.406Z,58.31
2017-06-02T04:32:01.994Z,58.4
2017-06-02T04:32:42.578Z,58.22
2017-06-02T04:33:23.149Z,58.4
2017-06-02T04:34:03.733Z,59.08
2017-06-02T04:34:44.311Z,58.69
2017-06-02T04:35:24.893Z,60.51
2017-06-02T04:36:05.481Z,61.08
2017-06-02T04:36:46.064Z,61.66
2017-06-02T04:37:26.654Z,62.17
2017-06-02T04:38:07.239Z,60.64
2017-06-02T04:38:47.824Z,60.73
2017-06-02T04:39:28.411Z,59.01
2017-06-02T04:40:09.029Z,58.24
2017-06-02T04:40:49.621Z,59.71
2017-06-02T04:41:30.206Z,59.8
2017-06-02T04:42:10.826Z,58.94
2017-06-02T04:42:51.410Z,58.46
2017-06-02T04:43:32.000Z,57.98
2017-06-02T04:44:12.596Z,57.89
2017-06-02T04:44:53.194Z,56.29
2017-06-02T04:45:33.784Z,57.34
2017-06-02T04:46:14.374Z,56.38
2017-06-02T04:46:54.986Z,57.24
2017-06-02T04:47:35.563Z,57.24
2017-06-02T04:48:16.144Z,56.67
2017-06-02T04:48:56.726Z,56.96
2017-06-02T04:49:37.320Z,56.86
2017-06-02T04:50:17.898Z,57.24
2017-06-02T04:50:58.468Z,56.96
2017-06-02T04:51:39.055Z,56.57
2017-06-02T04:52:19.642Z,56
2017-06-02T04:53:00.223Z,56.02
2017-06-02T04:53:40.816Z,55.26
2017-06-02T04:54:21.419Z,55.93
2017-06-02T04:55:02.003Z,55.74
2017-06-02T04:55:42.588Z,55.07
2017-06-02T04:56:23.187Z,54.78
2017-06-02T04:57:03.770Z,54.78
2017-06-02T04:57:44.357Z,54.39
2017-06-02T04:58:24.978Z,54.49
2017-06-02T04:59:05.560Z,54.49
2017-06-02T04:59:46.163Z,54.49
2017-06-02T05:00:26.754Z,54.39
2017-06-02T05:01:07.343Z,53.24
2017-06-02T05:01:47.926Z,53.15
2017-06-02T05:02:28.516Z,53.85
2017-06-02T05:03:09.165Z,53.91
2017-06-02T05:03:49.737Z,53.94
2017-06-02T05:04:30.356Z,53.46
2017-06-02T05:05:10.949Z,52.98
2017-06-02T05:05:51.528Z,53.46
2017-06-02T05:06:32.161Z,53.36
2017-06-02T05:07:12.753Z,53.85
2017-06-02T05:07:53.381Z,53.85
2017-06-02T05:08:33.989Z,53.27
2017-06-02T05:09:14.574Z,53.27
2017-06-02T05:09:55.170Z,53.36
2017-06-02T05:10:35.750Z,53.85
2017-06-02T05:11:16.337Z,54.04
2017-06-02T05:11:56.932Z,53.66
2017-06-02T05:12:37.532Z,53.85
2017-06-02T05:13:18.122Z,53.08
2017-06-02T05:13:58.708Z,52.31
2017-06-02T05:14:39.296Z,52.6
2017-06-02T05:15:19.891Z,52.6
2017-06-02T05:16:00.496Z,53.08
2017-06-02T05:16:41.086Z,53.11
2017-06-02T05:17:21.671Z,52.43
2017-06-02T05:18:02.269Z,52.72
2017-06-02T05:18:42.850Z,52.43
2017-06-02T05:19:23.458Z,51.37
2017-06-02T05:20:04.059Z,51.57
2017-06-02T05:20:44.670Z,52.14
2017-06-02T05:21:25.244Z,52.53
2017-06-02T05:22:05.840Z,52.14
2017-06-02T05:22:46.416Z,52.05
2017-06-02T05:23:26.999Z,52.05
2017-06-02T05:24:07.594Z,52.14
2017-06-02T05:24:48.177Z,51.18
2017-06-02T05:25:28.776Z,51.31
2017-06-02T05:26:09.386Z,51.11
2017-06-02T05:26:49.973Z,51.31
2017-06-02T05:27:30.560Z,51.02
2017-06-02T05:28:11.152Z,50.44
2017-06-02T05:28:51.754Z,50.66
2017-06-02T05:29:32.337Z,50.37
2017-06-02T05:30:12.922Z,49.41
2017-06-02T05:30:53.502Z,49.63
2017-06-02T05:31:34.096Z,49.05
2017-06-02T05:32:14.682Z,47.7
2017-06-02T05:32:55.274Z,47.51
2017-06-02T05:33:35.866Z,47.03
2017-06-02T05:34:16.471Z,46.93
2017-06-02T05:34:57.067Z,46.57
2017-06-02T05:35:37.670Z,46.57
2017-06-02T05:36:18.263Z,46.09
2017-06-02T05:36:58.848Z,45.7
2017-06-02T05:37:39.442Z,45.51
2017-06-02T05:38:20.036Z,45.03
2017-06-02T05:39:00.630Z,45.15
2017-06-02T05:39:41.196Z,44.96
2017-06-02T05:40:21.785Z,44.57
2017-06-02T05:41:02.384Z,44.48
2017-06-02T05:41:42.973Z,43.44
2017-06-02T05:42:23.574Z,43.15
2017-06-02T05:43:04.166Z,43.54
2017-06-02T05:43:44.784Z,44.02
2017-06-02T05:44:25.365Z,43.82
2017-06-02T05:45:05.950Z,43.73
2017-06-02T05:45:46.548Z,43.63
2017-06-02T05:46:27.148Z,43.34
2017-06-02T05:47:07.750Z,43.55
2017-06-02T05:47:48.359Z,42.79
2017-06-02T05:48:28.958Z,42.97
2017-06-02T05:49:09.572Z,42.4
2017-06-02T05:49:50.177Z,42.49
2017-06-02T05:50:30.748Z,42.59
2017-06-02T05:51:11.354Z,41.75
2017-06-02T05:51:51.952Z,41.44
2017-06-02T05:52:32.587Z,40.78
2017-06-02T05:53:13.202Z,40.78
2017-06-02T05:53:53.874Z,41.17
2017-06-02T05:54:34.486Z,40.97
2017-06-02T05:55:15.086Z,41.46
2017-06-02T05:55:55.670Z,40.97
2017-06-02T05:56:36.276Z,41.46
2017-06-02T05:57:16.912Z,40.69
2017-06-02T05:57:57.506Z,40.69
2017-06-02T05:58:38.113Z,40.78
2017-06-02T05:59:18.707Z,40.78
2017-06-02T05:59:59.317Z,40.99
2017-06-02T06:00:39.922Z,40.8
2017-06-02T06:01:20.554Z,40.51
2017-06-02T06:02:01.166Z,40.32
2017-06-02T06:02:41.762Z,40.32
2017-06-02T06:03:22.494Z,40.12
2017-06-02T06:04:03.105Z,39.94
2017-06-02T06:04:43.716Z,39.76
2017-06-02T06:05:24.436Z,40.05
2017-06-02T06:06:05.137Z,40.34
2017-06-02T06:06:45.743Z,40.05
2017-06-02T06:07:26.456Z,39.76
2017-06-02T06:08:07.096Z,39.18
2017-06-02T06:08:47.720Z,39.28
2017-06-02T06:09:28.352Z,38.7
2017-06-02T06:10:08.962Z,38.51
2017-06-02T06:10:49.571Z,37.83
2017-06-02T06:11:30.169Z,38.12
2017-06-02T06:12:10.760Z,38.14
2017-06-02T06:12:51.384Z,37.46
2017-06-02T06:13:32.023Z,38.14
2017-06-02T06:14:12.670Z,38.04
2017-06-02T06:14:53.276Z,37.65
2017-06-02T06:15:33.865Z,37.56
2017-06-02T06:16:14.471Z,37.17
2017-06-02T06:16:55.071Z,37.27
2017-06-02T06:17:35.666Z,36.8
2017-06-02T06:18:16.276Z,37.48
2017-06-02T06:18:57.258Z,38.14
2017-06-02T06:19:39.202Z,38.06
2017-06-02T06:20:20.428Z,37.48
2017-06-02T06:21:01.019Z,37.29
2017-06-02T06:21:46.850Z,36.71
2017-06-02T06:22:28.158Z,36.32
2017-06-02T06:23:08.746Z,36.22
2017-06-02T06:23:49.326Z,36.32
2017-06-02T06:24:29.951Z,36.42
2017-06-02T06:25:17.003Z,36.22
2017-06-02T06:25:57.592Z,36.24
2017-06-02T06:26:38.221Z,35.47
2017-06-02T06:27:19.208Z,35.28
2017-06-02T06:27:59.812Z,35.28
2017-06-02T06:28:41.402Z,35.28
2017-06-02T06:29:22.102Z,35.86
2017-06-02T06:30:02.726Z,36.44
2017-06-02T06:30:43.364Z,35.95
2017-06-02T06:31:32.167Z,35.28
2017-06-02T06:32:16.532Z,34.99
2017-06-02T06:32:57.347Z,34.79
2017-06-02T06:33:37.934Z,34.79
2017-06-02T06:34:18.534Z,34.99
2017-06-02T06:34:59.135Z,34.89
2017-06-02T06:35:40.113Z,34.7
2017-06-02T06:36:20.718Z,34.89
2017-06-02T06:37:01.328Z,34.79
2017-06-02T06:37:41.921Z,34.89
2017-06-02T06:38:22.513Z,35.08
2017-06-02T06:39:03.103Z,35.39
2017-06-02T06:39:44.234Z,35.2
2017-06-02T06:40:27.653Z,34.81
2017-06-02T06:41:09.745Z,34.52
2017-06-02T06:41:54.883Z,34.52
2017-06-02T06:42:35.486Z,34.13
2017-06-02T06:43:16.900Z,34.04
2017-06-02T06:43:57.501Z,34.13
2017-06-02T06:44:44.558Z,33.36
2017-06-02T06:45:25.163Z,33.75
2017-06-02T06:46:05.775Z,33.84
2017-06-02T06:46:46.356Z,34.13
2017-06-02T06:47:26.957Z,33.94
2017-06-02T06:48:07.571Z,33.84
2017-06-02T06:48:48.971Z,33.75
2017-06-02T06:49:29.577Z,33.36
2017-06-02T06:50:10.181Z,33.26
2017-06-02T06:50:57.498Z,32.99
2017-06-02T06:51:44.232Z,32.02
2017-06-02T06:52:26.011Z,31.44
2017-06-02T06:53:08.396Z,31.25
2017-06-02T06:53:49.067Z,31.33
2017-06-02T06:54:33.306Z,31.63
2017-06-02T06:55:17.456Z,31.93
2017-06-02T06:55:58.584Z,32.7
2017-06-02T06:56:41.322Z,33.37
2017-06-02T06:57:23.805Z,32.41
2017-06-02T06:58:05.917Z,32.31
2017-06-02T06:58:52.362Z,32.7
2017-06-02T06:59:32.991Z,32.51
2017-06-02T07:00:16.873Z,32.51
2017-06-02T07:00:58.763Z,32.31
2017-06-02T07:01:45.067Z,32.21
2017-06-02T07:02:27.796Z,32.21
2017-06-02T07:03:11.322Z,32.31
2017-06-02T07:03:53.944Z,31.93
2017-06-02T07:04:39.149Z,31.34
2017-06-02T07:05:26.981Z,32.7
2017-06-02T07:06:08.044Z,32.41
2017-06-02T07:06:52.428Z,31.93
2017-06-02T07:07:49.416Z,30.39
2017-06-02T07:08:30.023Z,30.86
2017-06-02T07:09:10.627Z,31.65
2017-06-02T07:09:57.739Z,32.33
2017-06-02T07:10:40.297Z,30.58
2017-06-02T07:11:21.633Z,29.6
2017-06-02T07:12:02.273Z,30.39
2017-06-02T07:12:42.883Z,30.78
2017-06-02T07:13:23.492Z,31.46
2017-06-02T07:14:04.078Z,32.04
2017-06-02T07:14:45.343Z,31.56
2017-06-02T07:15:25.950Z,32.71
2017-06-02T07:16:06.684Z,32.42
2017-06-02T07:16:47.276Z,33.59
2017-06-02T07:17:27.867Z,33.78
2017-06-02T07:18:09.410Z,32.33
2017-06-02T07:18:50.101Z,31.36
2017-06-02T07:19:30.742Z,31.28
2017-06-02T07:20:12.114Z,30.69
2017-06-02T07:20:52.737Z,29.92
2017-06-02T07:21:33.327Z,28.86
2017-06-02T07:22:13.920Z,28.66
2017-06-02T07:22:54.522Z,28.38
2017-06-02T07:23:35.112Z,29.24
2017-06-02T07:24:15.718Z,29.92
2017-06-02T07:24:56.384Z,30.51
2017-06-02T07:25:36.983Z,29.53
2017-06-02T07:26:17.943Z,29.83
2017-06-02T07:26:58.548Z,30.11
2017-06-02T07:27:39.145Z,29.63
2017-06-02T07:28:19.806Z,28.76
2017-06-02T07:29:00.405Z,29.63
2017-06-02T07:29:41.034Z,30.99
2017-06-02T07:30:21.644Z,30.99
2017-06-02T07:31:02.669Z,30.6
2017-06-02T07:31:43.289Z,29.64
2017-06-02T07:32:23.938Z,29.16
2017-06-02T07:33:04.538Z,28.49
2017-06-02T07:33:45.124Z,28.29
2017-06-02T07:34:25.739Z,29.94
2017-06-02T07:35:07.671Z,30.13
2017-06-02T07:35:49.634Z,28.77
2017-06-02T07:36:30.484Z,29.16
2017-06-02T07:37:11.082Z,28.19
2017-06-02T07:37:51.807Z,28.39
2017-06-02T07:38:32.607Z,28.87
2017-06-02T07:39:13.200Z,28.89
2017-06-02T07:39:53.810Z,26.17
2017-06-02T07:40:34.426Z,26.17
2017-06-02T07:41:15.021Z,28.4
2017-06-02T07:41:55.609Z,27.51
2017-06-02T07:42:36.200Z,26.54
2017-06-02T07:43:16.790Z,27.71
2017-06-02T07:43:57.386Z,28.77
2017-06-02T07:44:37.984Z,28.68
2017-06-02T07:45:18.593Z,28.68
2017-06-02T07:45:59.202Z,28.29
2017-06-02T07:46:39.798Z,28.49
2017-06-02T07:47:20.397Z,29.16
2017-06-02T07:48:01.003Z,29.26
2017-06-02T07:48:41.591Z,25.77
2017-06-02T07:49:22.202Z,25.19
2017-06-02T07:50:02.820Z,26.84
2017-06-02T07:50:43.414Z,27.42
2017-06-02T07:51:24.009Z,25.48
2017-06-02T07:52:04.620Z,27.51
2017-06-02T07:52:45.224Z,27.13
2017-06-02T07:53:25.810Z,25.87
2017-06-02T07:54:06.412Z,25.38
2017-06-02T07:54:47.015Z,25.19
2017-06-02T07:55:27.610Z,25.09
2017-06-02T07:56:08.220Z,27.03
2017-06-02T07:56:50.812Z,27.03
2017-06-02T07:57:31.612Z,24.51
2017-06-02T07:58:12.205Z,24.71
2017-06-02T07:58:52.799Z,23.64
2017-06-02T07:59:33.398Z,24.69
2017-06-02T08:00:14.000Z,26.34
2017-06-02T08:00:54.618Z,26.43
2017-06-02T08:01:35.311Z,26.73
2017-06-02T08:02:15.913Z,26.15
2017-06-02T08:02:56.507Z,26.45
2017-06-02T08:03:37.079Z,25.66
2017-06-02T08:04:17.696Z,25.58
2017-06-02T08:04:58.281Z,25.87
2017-06-02T08:05:38.887Z,28.08
2017-06-02T08:06:19.480Z,29.83
2017-06-02T08:07:00.083Z,28.66
2017-06-02T08:07:40.684Z,27.32
2017-06-02T08:08:21.295Z,27.42
2017-06-02T08:09:01.897Z,28.77
2017-06-02T08:09:42.487Z,28.39
2017-06-02T08:10:23.098Z,27.32
2017-06-02T08:11:05.523Z,28
2017-06-02T08:11:46.139Z,28.77
2017-06-02T08:12:26.748Z,26.93
2017-06-02T08:13:07.343Z,27.53
2017-06-02T08:13:47.937Z,27.71
2017-06-02T08:14:28.549Z,28.39
2017-06-02T08:15:09.149Z,25.49
2017-06-02T08:15:49.761Z,24.23
2017-06-02T08:16:31.682Z,23.44
2017-06-02T08:17:12.596Z,22.86
2017-06-02T08:17:53.181Z,22.57
2017-06-02T08:18:33.791Z,22.67
2017-06-02T08:19:14.392Z,23.43
2017-06-02T08:19:54.995Z,25.18
2017-06-02T08:20:35.592Z,25.37
2017-06-02T08:21:16.200Z,26.25
2017-06-02T08:21:56.797Z,26.25
2017-06-02T08:22:37.402Z,27.5
2017-06-02T08:23:17.999Z,27.89
2017-06-02T08:23:58.599Z,27.32
2017-06-02T08:24:39.200Z,26.06
2017-06-02T08:25:19.801Z,26.45
2017-06-02T08:26:00.387Z,25.96
2017-06-02T08:26:40.989Z,23.35
2017-06-02T08:27:21.583Z,22.57
2017-06-02T08:28:02.177Z,24.4
2017-06-02T08:28:42.766Z,25.66
2017-06-02T08:29:23.826Z,23.92
2017-06-02T08:30:07.684Z,23.72
2017-06-02T08:30:48.273Z,25.18
2017-06-02T08:31:28.870Z,26.92
2017-06-02T08:32:09.472Z,25.37
2017-06-02T08:32:53.112Z,23.82
2017-06-02T08:33:33.711Z,22.37
2017-06-02T08:34:14.324Z,22.08
2017-06-02T08:34:54.924Z,22.17
2017-06-02T08:35:35.514Z,22.55
2017-06-02T08:36:16.133Z,22.84
2017-06-02T08:36:56.780Z,22.94
2017-06-02T08:37:37.922Z,25.07
2017-06-02T08:38:18.507Z,27.39
2017-06-02T08:38:59.106Z,27.37
2017-06-02T08:39:39.976Z,27.68
2017-06-02T08:40:20.515Z,24.97
2017-06-02T08:41:01.102Z,24.19
2017-06-02T08:41:41.707Z,24.1
2017-06-02T08:42:22.299Z,23.6
2017-06-02T08:43:02.879Z,23.22
2017-06-02T08:43:43.480Z,24.38
2017-06-02T08:44:24.081Z,26.99
2017-06-02T08:45:04.679Z,28.25
2017-06-02T08:45:45.272Z,28.54
2017-06-02T08:46:25.859Z,29.41
2017-06-02T08:47:06.455Z,30.29